Time;durP1;ratioP1;P1;durP2;ratioP2;P2;SDS_P1;SDS_P2;PMS_P1;PMS_P2;Temp;Humidity;BMP_temperature;BMP_pressure;BME280_temperature;BME280_humidity;BME280_pressure;Samples;Min_cycle;Max_cycle;Signal;HPM_P1;HPM_P2
2021/05/29 00:02:03;;;;;;;6.50;1.10;;;;;;;;;;5034156;28;20084;-76
2021/05/29 00:04:29;;;;;;;6.40;0.90;;;;;;;;;;5034400;28;20096;-76
2021/05/29 00:06:54;;;;;;;1.10;1.00;;;;;;;;;;5034313;28;20465;-76
2021/05/29 00:09:20;;;;;;;2.05;1.00;;;;;;;;;;5034276;28;20083;-76
2021/05/29 00:11:46;;;;;;;1.40;1.30;;;;;;;;;;5033885;28;20048;-76
2021/05/29 00:14:11;;;;;;;3.08;1.40;;;;;;;;;;5059462;28;20038;-76
2021/05/29 00:16:37;;;;;;;2.08;1.58;;;;;;;;;;5073590;28;20032;-76
2021/05/29 00:19:03;;;;;;;1.00;1.00;;;;;;;;;;5073357;28;20071;-76
2021/05/29 00:21:28;;;;;;;5.13;1.55;;;;;;;;;;5074104;28;20379;-76
2021/05/29 00:23:54;;;;;;;1.35;1.15;;;;;;;;;;5073730;28;20516;-76
2021/05/29 00:26:19;;;;;;;1.73;1.42;;;;;;;;;;5073931;28;20115;-76
2021/05/29 00:28:45;;;;;;;2.10;1.45;;;;;;;;;;5072122;28;20078;-76
2021/05/29 00:31:10;;;;;;;3.75;1.10;;;;;;;;;;5073624;28;20032;-75
2021/05/29 00:33:35;;;;;;;2.22;1.30;;;;;;;;;;5073632;28;20495;-76
2021/05/29 00:36:01;;;;;;;4.25;1.13;;;;;;;;;;5072355;28;20040;-76
2021/05/29 00:38:27;;;;;;;2.30;1.20;;;;;;;;;;5072166;28;20070;-76
2021/05/29 00:40:52;;;;;;;3.65;1.27;;;;;;;;;;5057976;28;20040;-76
2021/05/29 00:43:18;;;;;;;2.47;1.50;;;;;;;;;;5053456;28;20422;-76
2021/05/29 00:45:43;;;;;;;2.85;1.55;;;;;;;;;;5053656;28;20496;-76
2021/05/29 00:48:09;;;;;;;3.08;1.40;;;;;;;;;;5053369;28;20617;-75
2021/05/29 00:50:47;;;;;;;7.22;1.75;;;;;;;;;;5053395;28;20037;-76
2021/05/29 00:53:13;;;;;;;3.63;1.50;;;;;;;;;;5053249;28;20037;-76
2021/05/29 00:55:38;;;;;;;2.28;1.40;;;;;;;;;;5053205;28;20029;-76
2021/05/29 00:58:04;;;;;;;1.60;1.30;;;;;;;;;;5053233;28;20040;-75
2021/05/29 01:00:30;;;;;;;4.00;1.30;;;;;;;;;;5053423;28;20047;-76
2021/05/29 01:02:55;;;;;;;3.47;1.50;;;;;;;;;;5052062;28;20044;-75
2021/05/29 01:05:21;;;;;;;6.03;1.83;;;;;;;;;;5053380;28;20051;-76
2021/05/29 01:07:48;;;;;;;4.13;1.55;;;;;;;;;;5053357;28;20051;-76
2021/05/29 01:10:15;;;;;;;1.83;1.40;;;;;;;;;;5053284;28;20120;-76
2021/05/29 01:12:40;;;;;;;7.45;1.27;;;;;;;;;;5053169;28;20037;-76
2021/05/29 01:15:08;;;;;;;2.33;1.48;;;;;;;;;;5053367;28;20032;-76
2021/05/29 01:17:33;;;;;;;6.63;1.50;;;;;;;;;;5052933;28;20033;-76
2021/05/29 01:19:59;;;;;;;3.05;1.40;;;;;;;;;;5053245;28;20043;-76
2021/05/29 01:22:44;;;;;;;2.22;1.42;;;;;;;;;;5052221;28;20048;-75
2021/05/29 01:25:24;;;;;;;1.52;1.38;;;;;;;;;;5055454;28;20048;-75
2021/05/29 01:28:06;;;;;;;1.95;1.30;;;;;;;;;;5057196;28;20127;-75
2021/05/29 01:30:35;;;;;;;2.13;1.55;;;;;;;;;;5057351;28;20520;-76
2021/05/29 01:33:02;;;;;;;1.35;1.20;;;;;;;;;;5057084;28;20044;-76
2021/05/29 01:35:28;;;;;;;4.75;1.50;;;;;;;;;;5055802;28;20033;-76
2021/05/29 01:37:53;;;;;;;1.45;1.33;;;;;;;;;;5056577;28;20047;-76
2021/05/29 01:40:19;;;;;;;1.52;1.42;;;;;;;;;;5046718;28;20033;-76
2021/05/29 01:42:46;;;;;;;5.30;1.40;;;;;;;;;;5036725;28;20076;-76
2021/05/29 01:45:12;;;;;;;3.10;1.50;;;;;;;;;;5037270;28;20037;-76
2021/05/29 01:47:44;;;;;;;4.15;1.65;;;;;;;;;;5036874;28;20037;-76
2021/05/29 01:50:15;;;;;;;2.85;1.30;;;;;;;;;;5037065;28;20384;-76
2021/05/29 01:52:55;;;;;;;8.25;1.27;;;;;;;;;;5036959;28;20120;-76
2021/05/29 01:55:24;;;;;;;5.75;1.30;;;;;;;;;;5036614;28;20353;-75
2021/05/29 01:57:51;;;;;;;6.68;1.45;;;;;;;;;;5035983;28;20053;-75
2021/05/29 02:00:17;;;;;;;1.75;1.23;;;;;;;;;;5036775;28;20044;-75
2021/05/29 02:02:43;;;;;;;3.42;1.65;;;;;;;;;;5044238;28;20043;-75
2021/05/29 02:05:23;;;;;;;25.08;3.75;;;;;;;;;;5056344;28;20028;-75
2021/05/29 02:07:48;;;;;;;3.15;1.52;;;;;;;;;;5055138;28;20033;-75
2021/05/29 02:10:22;;;;;;;2.70;1.60;;;;;;;;;;5053999;28;20475;-75
2021/05/29 02:12:50;;;;;;;1.90;1.50;;;;;;;;;;5056244;28;20064;-75
2021/05/29 02:15:18;;;;;;;5.63;1.58;;;;;;;;;;5056372;28;20366;-76
2021/05/29 02:17:47;;;;;;;3.63;1.60;;;;;;;;;;5053760;28;20037;-75
2021/05/29 02:20:13;;;;;;;3.97;1.30;;;;;;;;;;5055980;28;20029;-75
2021/05/29 02:22:38;;;;;;;7.47;1.73;;;;;;;;;;5055846;28;20043;-75
2021/05/29 02:25:05;;;;;;;5.32;1.90;;;;;;;;;;5055677;28;20044;-75
2021/05/29 02:27:31;;;;;;;3.47;1.75;;;;;;;;;;5055734;28;20378;-75
2021/05/29 02:29:56;;;;;;;3.92;1.70;;;;;;;;;;5054765;28;20485;-75
2021/05/29 02:32:22;;;;;;;2.88;1.80;;;;;;;;;;5055991;28;20041;-75
2021/05/29 02:34:48;;;;;;;9.18;2.28;;;;;;;;;;5056391;28;20061;-75
2021/05/29 02:37:13;;;;;;;3.53;2.67;;;;;;;;;;5055743;28;20071;-75
2021/05/29 02:39:38;;;;;;;4.60;2.30;;;;;;;;;;5055807;28;20471;-75
2021/05/29 02:42:04;;;;;;;5.00;2.55;;;;;;;;;;5055150;28;20049;-75
2021/05/29 02:44:30;;;;;;;4.25;2.55;;;;;;;;;;5055592;28;20372;-75
2021/05/29 02:46:55;;;;;;;9.43;3.30;;;;;;;;;;5055575;28;20048;-75
2021/05/29 02:49:20;;;;;;;3.78;2.40;;;;;;;;;;5055916;28;20052;-75
2021/05/29 02:51:46;;;;;;;3.88;2.47;;;;;;;;;;5054504;28;20056;-75
2021/05/29 02:54:11;;;;;;;4.93;2.50;;;;;;;;;;5054272;28;20089;-75
2021/05/29 02:56:37;;;;;;;13.75;2.88;;;;;;;;;;5055607;28;20033;-75
2021/05/29 02:59:03;;;;;;;4.10;2.63;;;;;;;;;;5055316;28;20463;-75
2021/05/29 03:01:28;;;;;;;6.97;3.13;;;;;;;;;;5055486;28;20037;-75
2021/05/29 03:03:53;;;;;;;10.98;2.85;;;;;;;;;;5055164;28;20043;-75
2021/05/29 03:06:19;;;;;;;5.10;2.85;;;;;;;;;;5055253;28;20059;-75
2021/05/29 03:08:44;;;;;;;6.00;3.47;;;;;;;;;;5055134;28;20041;-75
2021/05/29 03:11:11;;;;;;;6.10;3.67;;;;;;;;;;5055553;28;20037;-75
2021/05/29 03:13:36;;;;;;;6.90;3.70;;;;;;;;;;5053789;28;20033;-75
2021/05/29 03:16:02;;;;;;;6.65;4.00;;;;;;;;;;5055323;28;20505;-75
2021/05/29 03:18:28;;;;;;;9.70;3.53;;;;;;;;;;5055175;28;20036;-75
2021/05/29 03:20:54;;;;;;;5.55;3.33;;;;;;;;;;5054831;28;20047;-75
2021/05/29 03:23:19;;;;;;;9.60;3.72;;;;;;;;;;5054631;28;20037;-75
2021/05/29 03:25:45;;;;;;;6.10;3.90;;;;;;;;;;5055245;28;20075;-75
2021/05/29 03:28:10;;;;;;;5.45;3.70;;;;;;;;;;5053642;28;20060;-74
2021/05/29 03:30:37;;;;;;;5.63;3.92;;;;;;;;;;5055316;28;20069;-75
2021/05/29 03:33:02;;;;;;;4.95;3.17;;;;;;;;;;5054694;28;20037;-75
2021/05/29 03:35:28;;;;;;;6.80;3.60;;;;;;;;;;5054946;28;20509;-75
2021/05/29 03:37:54;;;;;;;7.07;3.92;;;;;;;;;;5054655;28;20498;-75
2021/05/29 03:40:19;;;;;;;6.38;4.28;;;;;;;;;;5054895;28;20028;-75
2021/05/29 03:42:46;;;;;;;6.05;4.18;;;;;;;;;;5052204;28;20052;-75
2021/05/29 03:45:13;;;;;;;6.15;4.20;;;;;;;;;;5054692;28;20202;-75
2021/05/29 03:47:43;;;;;;;5.68;4.05;;;;;;;;;;5053363;28;20029;-75
2021/05/29 03:50:11;;;;;;;6.70;4.90;;;;;;;;;;5054666;28;20532;-75
2021/05/29 03:52:36;;;;;;;6.70;4.50;;;;;;;;;;5054301;28;20045;-75
2021/05/29 03:55:03;;;;;;;6.97;4.47;;;;;;;;;;5054573;28;20037;-75
2021/05/29 03:57:29;;;;;;;9.82;4.72;;;;;;;;;;5054607;28;20048;-75
2021/05/29 03:59:54;;;;;;;5.78;4.15;;;;;;;;;;5054624;28;20072;-75
2021/05/29 04:02:20;;;;;;;8.85;4.57;;;;;;;;;;5054390;28;20450;-75
2021/05/29 04:04:45;;;;;;;6.43;4.00;;;;;;;;;;5053295;28;20108;-75
2021/05/29 04:07:11;;;;;;;5.93;3.80;;;;;;;;;;5054531;28;20052;-75
2021/05/29 04:09:36;;;;;;;5.85;4.40;;;;;;;;;;5053294;28;20029;-75
2021/05/29 04:12:02;;;;;;;7.35;4.57;;;;;;;;;;5054319;28;20040;-75
2021/05/29 04:14:27;;;;;;;8.13;4.30;;;;;;;;;;5053877;28;20029;-75
2021/05/29 04:16:53;;;;;;;7.10;4.70;;;;;;;;;;5054099;28;20372;-75
2021/05/29 04:19:18;;;;;;;6.20;4.35;;;;;;;;;;5053381;28;20041;-75
2021/05/29 04:21:44;;;;;;;7.72;5.03;;;;;;;;;;5052785;28;20037;-75
2021/05/29 04:24:09;;;;;;;8.32;4.22;;;;;;;;;;5052222;28;20124;-75
2021/05/29 04:26:35;;;;;;;7.50;4.97;;;;;;;;;;5053742;28;20052;-75
2021/05/29 04:29:01;;;;;;;6.53;4.38;;;;;;;;;;5053701;28;20087;-75
2021/05/29 04:31:26;;;;;;;10.48;5.70;;;;;;;;;;5053732;28;20068;-75
2021/05/29 04:33:51;;;;;;;7.68;4.93;;;;;;;;;;5053738;28;20036;-75
2021/05/29 04:36:17;;;;;;;6.93;5.10;;;;;;;;;;5053610;28;20530;-75
2021/05/29 04:38:42;;;;;;;6.68;5.20;;;;;;;;;;5052520;28;20033;-75
2021/05/29 04:41:08;;;;;;;7.03;4.97;;;;;;;;;;5052855;28;20463;-76
2021/05/29 04:43:34;;;;;;;6.85;4.70;;;;;;;;;;5067835;28;20462;-76
2021/05/29 04:45:59;;;;;;;6.65;4.78;;;;;;;;;;5073297;28;20469;-76
2021/05/29 04:48:25;;;;;;;10.07;4.85;;;;;;;;;;5069755;28;20046;-76
2021/05/29 04:53:35;;;;;;;5.80;4.50;;;;;;;;;;5053432;28;20033;-73
2021/05/29 04:56:03;;;;;;;5.95;4.68;;;;;;;;;;5053035;28;20024;-73
2021/05/29 04:58:29;;;;;;;6.25;4.93;;;;;;;;;;5052408;28;20048;-73
2021/05/29 05:00:54;;;;;;;6.30;4.70;;;;;;;;;;5052832;28;20033;-73
2021/05/29 05:03:20;;;;;;;10.07;6.43;;;;;;;;;;5053124;28;20040;-73
2021/05/29 05:05:45;;;;;;;11.38;6.10;;;;;;;;;;5053161;28;20044;-74
2021/05/29 05:08:11;;;;;;;7.85;5.28;;;;;;;;;;5053255;28;20063;-75
2021/05/29 05:10:36;;;;;;;10.82;5.18;;;;;;;;;;5050693;28;20127;-74
2021/05/29 05:13:02;;;;;;;6.60;4.82;;;;;;;;;;5053105;28;20040;-76
2021/05/29 05:15:27;;;;;;;9.27;5.55;;;;;;;;;;5052104;28;20037;-75
2021/05/29 05:17:54;;;;;;;6.80;5.28;;;;;;;;;;5051111;28;20037;-74
2021/05/29 05:20:19;;;;;;;6.70;4.90;;;;;;;;;;5053206;28;20037;-75
2021/05/29 05:22:45;;;;;;;7.80;5.18;;;;;;;;;;5052709;28;20043;-74
2021/05/29 05:25:12;;;;;;;6.07;4.63;;;;;;;;;;5052982;28;20037;-74
2021/05/29 05:27:37;;;;;;;7.40;4.85;;;;;;;;;;5053479;28;20086;-73
2021/05/29 05:30:06;;;;;;;6.50;5.13;;;;;;;;;;5052846;28;20479;-73
2021/05/29 05:32:31;;;;;;;5.57;4.60;;;;;;;;;;5052195;28;20112;-74
2021/05/29 05:34:57;;;;;;;10.20;4.75;;;;;;;;;;5053076;28;20060;-73
2021/05/29 05:37:22;;;;;;;6.40;4.78;;;;;;;;;;5053385;28;20041;-73
2021/05/29 05:39:48;;;;;;;7.63;4.82;;;;;;;;;;5051470;28;20044;-73
2021/05/29 05:42:13;;;;;;;7.72;5.30;;;;;;;;;;5052059;28;20057;-72
2021/05/29 05:44:38;;;;;;;13.93;5.40;;;;;;;;;;5052972;28;20037;-73
2021/05/29 05:47:04;;;;;;;8.65;5.55;;;;;;;;;;5052963;28;20414;-75
2021/05/29 05:49:29;;;;;;;7.28;4.95;;;;;;;;;;5053350;28;20025;-74
2021/05/29 05:51:55;;;;;;;8.10;5.45;;;;;;;;;;5053254;28;20037;-73
2021/05/29 05:54:20;;;;;;;6.95;5.03;;;;;;;;;;5052883;28;20059;-73
2021/05/29 05:56:46;;;;;;;7.68;5.25;;;;;;;;;;5052901;28;20372;-73
2021/05/29 05:59:11;;;;;;;6.32;4.80;;;;;;;;;;5053004;28;20033;-74
2021/05/29 06:01:38;;;;;;;5.88;5.00;;;;;;;;;;5052587;28;20866;-75
2021/05/29 06:04:04;;;;;;;5.97;5.10;;;;;;;;;;5052812;28;20499;-75
2021/05/29 06:06:29;;;;;;;5.90;5.05;;;;;;;;;;5052722;28;20075;-74
2021/05/29 06:08:55;;;;;;;5.35;4.13;;;;;;;;;;5051933;28;20056;-75
2021/05/29 06:11:21;;;;;;;5.85;4.60;;;;;;;;;;5055049;28;20115;-75
2021/05/29 06:21:28;;;;;;;5.53;4.30;;;;;;;;;;5056095;28;20029;-75
2021/05/29 06:23:53;;;;;;;6.32;5.13;;;;;;;;;;5056129;28;20036;-74
2021/05/29 06:26:18;;;;;;;6.75;4.82;;;;;;;;;;5054317;28;20073;-75
2021/05/29 06:28:44;;;;;;;6.50;5.25;;;;;;;;;;5054682;28;20044;-75
2021/05/29 06:31:09;;;;;;;6.03;5.07;;;;;;;;;;5055789;28;20036;-75
2021/05/29 06:33:35;;;;;;;6.53;5.60;;;;;;;;;;5055865;28;20044;-75
2021/05/29 06:36:00;;;;;;;9.55;5.50;;;;;;;;;;5056276;28;20040;-74
2021/05/29 06:38:26;;;;;;;6.60;5.45;;;;;;;;;;5071080;28;20044;-75
2021/05/29 06:40:51;;;;;;;9.43;6.22;;;;;;;;;;5075509;28;20115;-75
2021/05/29 06:43:17;;;;;;;7.90;5.57;;;;;;;;;;5075697;28;20048;-75
2021/05/29 06:45:43;;;;;;;5.75;4.82;;;;;;;;;;5075469;28;20056;-74
2021/05/29 06:48:10;;;;;;;6.07;5.40;;;;;;;;;;5075480;28;20458;-73
2021/05/29 06:50:36;;;;;;;6.70;5.10;;;;;;;;;;5075702;28;20401;-71
2021/05/29 06:53:04;;;;;;;8.77;5.05;;;;;;;;;;5075365;28;20044;-71
2021/05/29 07:00:58;;;;;;;9.13;5.97;;;;;;;;;;5075385;28;20044;-73
2021/05/29 07:03:24;;;;;;;6.93;5.63;;;;;;;;;;5075561;28;20043;-73
2021/05/29 07:05:50;;;;;;;7.00;5.78;;;;;;;;;;5075145;28;20040;-74
2021/05/29 07:08:15;;;;;;;7.20;5.38;;;;;;;;;;5058167;28;20099;-74
2021/05/29 07:10:41;;;;;;;8.57;5.57;;;;;;;;;;5052232;28;20241;-74
2021/05/29 07:13:06;;;;;;;7.03;5.38;;;;;;;;;;5054560;28;20045;-74
2021/05/29 07:15:36;;;;;;;7.43;5.50;;;;;;;;;;5054964;28;20410;-74
2021/05/29 07:18:06;;;;;;;8.02;5.90;;;;;;;;;;5055304;28;20112;-74
2021/05/29 07:20:32;;;;;;;6.75;5.40;;;;;;;;;;5053967;28;20470;-73
2021/05/29 07:22:58;;;;;;;7.93;6.25;;;;;;;;;;5053199;28;20064;-73
2021/05/29 07:25:23;;;;;;;10.23;6.22;;;;;;;;;;5054500;28;20029;-73
2021/05/29 07:27:49;;;;;;;7.80;5.80;;;;;;;;;;5054923;28;20541;-73
2021/05/29 07:30:15;;;;;;;7.75;6.35;;;;;;;;;;5054437;28;20041;-73
2021/05/29 07:32:40;;;;;;;10.25;6.57;;;;;;;;;;5054897;28;20033;-73
2021/05/29 07:35:06;;;;;;;9.02;7.20;;;;;;;;;;5054657;28;20028;-73
2021/05/29 07:37:31;;;;;;;12.75;8.07;;;;;;;;;;5054647;28;20123;-73
2021/05/29 07:39:57;;;;;;;14.98;7.90;;;;;;;;;;5053451;28;20036;-73
2021/05/29 07:42:22;;;;;;;9.88;7.50;;;;;;;;;;5053264;28;20061;-73
2021/05/29 07:44:48;;;;;;;10.30;6.95;;;;;;;;;;5053378;28;20033;-73
2021/05/29 07:47:13;;;;;;;10.65;7.35;;;;;;;;;;5054565;28;20037;-73
2021/05/29 07:49:39;;;;;;;10.05;7.90;;;;;;;;;;5036766;28;20033;-73
2021/05/29 07:52:04;;;;;;;8.82;7.05;;;;;;;;;;5054336;28;20037;-74
2021/05/29 07:54:31;;;;;;;9.85;7.60;;;;;;;;;;5054344;28;20056;-75
2021/05/29 07:56:57;;;;;;;11.07;6.97;;;;;;;;;;5053405;28;20488;-75
2021/05/29 07:59:22;;;;;;;13.45;8.63;;;;;;;;;;5054145;28;20071;-75
2021/05/29 08:01:48;;;;;;;11.45;8.07;;;;;;;;;;5054098;28;20067;-74
2021/05/29 08:04:14;;;;;;;15.43;9.45;;;;;;;;;;5053221;28;20039;-75
2021/05/29 08:06:40;;;;;;;14.65;9.60;;;;;;;;;;5052450;28;20052;-75
2021/05/29 08:09:06;;;;;;;12.15;8.00;;;;;;;;;;5054060;28;20468;-74
2021/05/29 08:11:37;;;;;;;12.15;8.98;;;;;;;;;;5054138;28;20048;-74
2021/05/29 08:14:03;;;;;;;9.90;8.15;;;;;;;;;;5053258;28;20120;-74
2021/05/29 08:16:29;;;;;;;12.13;8.43;;;;;;;;;;5055281;28;20039;-74
2021/05/29 08:18:55;;;;;;;11.60;8.77;;;;;;;;;;5054713;28;20028;-75
2021/05/29 08:21:21;;;;;;;13.77;9.48;;;;;;;;;;5053664;28;20052;-74
2021/05/29 08:23:47;;;;;;;14.15;9.65;;;;;;;;;;5052690;28;20044;-74
2021/05/29 08:26:13;;;;;;;12.50;8.85;;;;;;;;;;5053959;28;20029;-74
2021/05/29 08:28:39;;;;;;;10.15;8.20;;;;;;;;;;5053756;28;20359;-74
2021/05/29 08:31:04;;;;;;;11.02;7.78;;;;;;;;;;5053969;28;20417;-75
2021/05/29 08:33:30;;;;;;;18.05;9.18;;;;;;;;;;5053507;28;20061;-74
2021/05/29 08:35:56;;;;;;;12.82;7.95;;;;;;;;;;5053809;28;20410;-75
2021/05/29 08:38:21;;;;;;;12.77;9.13;;;;;;;;;;5052330;28;20654;-74
2021/05/29 08:40:47;;;;;;;9.38;7.65;;;;;;;;;;5053533;28;20057;-74
2021/05/29 08:43:12;;;;;;;12.48;7.97;;;;;;;;;;5052910;28;21072;-74
2021/05/29 08:45:39;;;;;;;11.63;7.20;;;;;;;;;;5053650;28;20058;-74
2021/05/29 08:48:04;;;;;;;18.50;7.97;;;;;;;;;;5053198;28;20055;-75
2021/05/29 08:50:31;;;;;;;13.93;7.20;;;;;;;;;;5053448;28;20542;-75
2021/05/29 08:52:56;;;;;;;12.52;7.25;;;;;;;;;;5051982;28;20060;-75
2021/05/29 08:55:22;;;;;;;176.75;18.00;;;;;;;;;;5052177;28;20072;-75
2021/05/29 08:57:49;;;;;;;18.33;8.25;;;;;;;;;;5051885;28;20122;-75
2021/05/29 09:00:17;;;;;;;14.27;7.40;;;;;;;;;;5054670;28;20031;-74
2021/05/29 09:02:59;;;;;;;8.18;6.22;;;;;;;;;;5054411;28;20090;-74
2021/05/29 09:05:37;;;;;;;10.88;6.85;;;;;;;;;;5054553;28;20033;-74
2021/05/29 09:08:08;;;;;;;9.23;6.78;;;;;;;;;;5053114;28;20483;-74
2021/05/29 09:10:39;;;;;;;9.35;6.93;;;;;;;;;;5054458;28;20090;-74
2021/05/29 09:13:13;;;;;;;14.88;7.68;;;;;;;;;;5053484;28;20056;-75
2021/05/29 09:15:49;;;;;;;10.30;7.25;;;;;;;;;;5037859;28;20047;-75
2021/05/29 09:18:34;;;;;;;15.07;7.63;;;;;;;;;;5037352;28;20040;-75
2021/05/29 09:21:23;;;;;;;9.68;7.03;;;;;;;;;;5053794;28;20025;-75
2021/05/29 09:24:13;;;;;;;11.55;8.05;;;;;;;;;;5052678;28;20040;-75
2021/05/29 09:26:49;;;;;;;15.25;8.18;;;;;;;;;;5032496;28;20049;-74
2021/05/29 09:29:18;;;;;;;;;;;;;;;;;;5054328;28;20056;-74
2021/05/29 09:31:58;;;;;;;12.93;8.00;;;;;;;;;;5053579;28;19935;-74
2021/05/29 09:34:28;;;;;;;12.43;8.07;;;;;;;;;;5053171;28;20036;-74
2021/05/29 09:37:09;;;;;;;12.48;7.97;;;;;;;;;;5053103;28;20378;-74
2021/05/29 09:39:40;;;;;;;13.02;8.55;;;;;;;;;;5052090;28;20041;-74
2021/05/29 09:42:08;;;;;;;12.05;7.82;;;;;;;;;;5053089;28;20049;-74
2021/05/29 09:44:34;;;;;;;11.50;7.25;;;;;;;;;;5051634;28;20035;-74
2021/05/29 09:47:03;;;;;;;10.05;7.00;;;;;;;;;;5056522;28;20086;-75
2021/05/29 09:49:56;;;;;;;12.02;7.25;;;;;;;;;;5056788;28;20090;-75
2021/05/29 09:52:36;;;;;;;10.50;7.22;;;;;;;;;;5056804;28;20059;-75
2021/05/29 09:55:13;;;;;;;10.98;6.82;;;;;;;;;;5055781;28;20111;-75
2021/05/29 09:57:57;;;;;;;9.85;6.88;;;;;;;;;;5056708;28;20037;-74
2021/05/29 10:00:39;;;;;;;9.82;7.00;;;;;;;;;;5056539;28;20040;-75
2021/05/29 10:03:05;;;;;;;12.32;6.95;;;;;;;;;;5056377;28;20101;-75
2021/05/29 10:05:32;;;;;;;10.52;6.68;;;;;;;;;;5055199;28;20037;-75
2021/05/29 10:07:58;;;;;;;13.52;6.25;;;;;;;;;;5056502;28;20463;-75
2021/05/29 10:10:24;;;;;;;7.70;5.35;;;;;;;;;;5056211;28;20041;-75
2021/05/29 10:12:49;;;;;;;8.07;5.50;;;;;;;;;;5054992;28;20048;-75
2021/05/29 10:15:18;;;;;;;7.80;5.20;;;;;;;;;;5055152;28;20029;-75
2021/05/29 10:17:47;;;;;;;10.13;5.40;;;;;;;;;;5054555;28;20036;-75
2021/05/29 10:20:15;;;;;;;9.70;6.07;;;;;;;;;;5056231;28;20470;-74
2021/05/29 10:22:43;;;;;;;7.57;4.97;;;;;;;;;;5054012;28;20079;-75
2021/05/29 10:25:12;;;;;;;6.70;4.10;;;;;;;;;;5055426;28;20064;-75
2021/05/29 10:27:42;;;;;;;7.50;4.43;;;;;;;;;;5055791;28;20402;-75
2021/05/29 10:30:08;;;;;;;5.45;4.22;;;;;;;;;;5056014;28;20059;-73
2021/05/29 10:32:33;;;;;;;9.52;4.13;;;;;;;;;;5055709;28;20155;-72
2021/05/29 10:35:10;;;;;;;9.10;5.32;;;;;;;;;;5055822;28;20490;-73
2021/05/29 10:37:44;;;;;;;6.80;3.97;;;;;;;;;;5054686;28;20467;-73
2021/05/29 10:40:24;;;;;;;6.53;4.18;;;;;;;;;;5056070;28;20048;-73
2021/05/29 10:43:09;;;;;;;11.40;4.57;;;;;;;;;;5054824;28;20045;-73
2021/05/29 10:45:36;;;;;;;7.20;4.53;;;;;;;;;;5054743;28;20124;-73
2021/05/29 10:48:12;;;;;;;4.30;3.72;;;;;;;;;;5055714;28;20439;-73
2021/05/29 10:50:43;;;;;;;6.68;4.47;;;;;;;;;;5054532;28;20060;-73
2021/05/29 10:53:09;;;;;;;7.88;4.10;;;;;;;;;;5055219;28;20060;-73
2021/05/29 10:55:35;;;;;;;6.40;4.05;;;;;;;;;;5055623;28;20138;-73
2021/05/29 10:58:03;;;;;;;5.60;3.40;;;;;;;;;;5054195;28;20089;-73
2021/05/29 11:00:41;;;;;;;7.85;4.70;;;;;;;;;;5055469;28;20057;-73
2021/05/29 11:03:24;;;;;;;14.00;3.85;;;;;;;;;;5055520;28;20047;-73
2021/05/29 11:05:52;;;;;;;5.57;3.28;;;;;;;;;;5055238;28;20059;-72
2021/05/29 11:08:46;;;;;;;5.80;3.30;;;;;;;;;;5055044;28;20135;-73
2021/05/29 11:11:36;;;;;;;6.72;3.08;;;;;;;;;;5055236;28;20536;-73
2021/05/29 11:14:04;;;;;;;4.47;3.30;;;;;;;;;;5054981;28;20478;-73
2021/05/29 11:16:45;;;;;;;3.42;2.90;;;;;;;;;;5053467;28;20033;-73
2021/05/29 11:19:15;;;;;;;6.30;3.25;;;;;;;;;;5054065;28;20509;-73
2021/05/29 11:22:00;;;;;;;7.70;3.47;;;;;;;;;;5055143;28;20041;-73
2021/05/29 11:24:30;;;;;;;6.68;3.97;;;;;;;;;;5054808;28;20124;-73
2021/05/29 11:26:56;;;;;;;8.35;3.38;;;;;;;;;;5054827;28;20048;-73
2021/05/29 11:29:21;;;;;;;5.43;3.88;;;;;;;;;;5053908;28;20045;-73
2021/05/29 11:31:48;;;;;;;5.20;3.15;;;;;;;;;;5054631;28;20495;-73
2021/05/29 11:34:14;;;;;;;4.55;3.30;;;;;;;;;;5053779;28;20075;-73
2021/05/29 11:36:43;;;;;;;4.75;3.40;;;;;;;;;;5054695;28;20118;-73
2021/05/29 11:39:13;;;;;;;4.95;3.55;;;;;;;;;;5054696;28;20126;-73
2021/05/29 11:41:40;;;;;;;4.65;2.97;;;;;;;;;;5053328;28;20143;-73
2021/05/29 11:44:19;;;;;;;5.63;3.35;;;;;;;;;;5053805;28;20541;-73
2021/05/29 11:46:45;;;;;;;4.63;3.17;;;;;;;;;;5054329;28;20045;-73
2021/05/29 11:49:10;;;;;;;4.78;3.20;;;;;;;;;;5054466;28;20079;-73
2021/05/29 11:51:41;;;;;;;6.03;3.40;;;;;;;;;;5053198;28;20555;-73
2021/05/29 11:54:09;;;;;;;4.03;2.95;;;;;;;;;;5034767;28;20128;-73
2021/05/29 11:56:40;;;;;;;4.65;3.42;;;;;;;;;;5034556;28;20044;-73
2021/05/29 11:59:09;;;;;;;8.10;3.17;;;;;;;;;;5034494;28;20039;-73
2021/05/29 12:01:39;;;;;;;6.32;3.47;;;;;;;;;;5034309;28;20068;-73
2021/05/29 12:04:06;;;;;;;5.47;3.33;;;;;;;;;;5034284;28;20046;-73
2021/05/29 12:07:06;;;;;;;6.80;3.15;;;;;;;;;;5034280;28;20041;-72
2021/05/29 12:09:39;;;;;;;5.05;3.38;;;;;;;;;;5033999;28;20033;-73
2021/05/29 12:12:07;;;;;;;4.78;3.13;;;;;;;;;;5034319;28;20107;-73
2021/05/29 12:14:34;;;;;;;7.80;4.20;;;;;;;;;;5046848;28;20550;-73
2021/05/29 12:17:02;;;;;;;5.45;3.58;;;;;;;;;;5053323;28;20430;-73
2021/05/29 12:19:33;;;;;;;5.88;3.17;;;;;;;;;;5052822;28;20032;-73
2021/05/29 12:22:00;;;;;;;6.05;3.20;;;;;;;;;;5054019;28;20036;-73
2021/05/29 12:24:27;;;;;;;6.32;3.20;;;;;;;;;;5053905;28;20037;-73
2021/05/29 12:26:53;;;;;;;5.07;3.45;;;;;;;;;;5053861;28;20110;-73
2021/05/29 12:29:24;;;;;;;5.75;3.50;;;;;;;;;;5053575;28;20041;-73
2021/05/29 12:31:52;;;;;;;6.55;3.60;;;;;;;;;;5053871;28;20174;-73
2021/05/29 12:34:19;;;;;;;5.53;3.75;;;;;;;;;;5052375;28;20039;-73
2021/05/29 12:37:01;;;;;;;6.18;3.30;;;;;;;;;;5052412;28;20044;-73
2021/05/29 12:39:42;;;;;;;4.20;3.10;;;;;;;;;;5053524;28;20486;-73
2021/05/29 12:42:18;;;;;;;5.82;3.30;;;;;;;;;;5051063;28;20102;-73
2021/05/29 12:44:44;;;;;;;;;;;;;;;;;;5052710;28;20559;-73
2021/05/29 12:47:21;;;;;;;5.93;3.78;;;;;;;;;;5053581;28;19908;-73
2021/05/29 12:49:49;;;;;;;4.95;3.50;;;;;;;;;;5035882;28;20048;-73
2021/05/29 12:52:40;;;;;;;5.63;3.50;;;;;;;;;;5053402;28;20041;-73
2021/05/29 12:55:07;;;;;;;4.28;3.42;;;;;;;;;;5052198;28;20045;-73
2021/05/29 12:57:51;;;;;;;4.15;3.38;;;;;;;;;;5053103;28;20037;-73
2021/05/29 13:00:26;;;;;;;3.92;3.45;;;;;;;;;;5052078;28;20044;-73
2021/05/29 13:09:25;;;;;;;6.60;3.83;;;;;;;;;;5052199;28;20509;-74
2021/05/29 13:11:51;;;;;;;7.97;4.50;;;;;;;;;;5052618;28;20079;-73
2021/05/29 13:14:25;;;;;;;6.70;4.15;;;;;;;;;;5051196;28;20068;-73
2021/05/29 13:16:52;;;;;;;5.72;4.03;;;;;;;;;;5047463;28;20029;-73
2021/05/29 13:19:20;;;;;;;5.30;3.78;;;;;;;;;;5051210;28;20555;-73
2021/05/29 13:21:57;;;;;;;5.53;3.90;;;;;;;;;;5052130;28;20064;-74
2021/05/29 13:24:45;;;;;;;7.32;3.90;;;;;;;;;;5052685;28;20029;-73
2021/05/29 13:27:13;;;;;;;6.28;4.28;;;;;;;;;;5052797;28;20116;-72
2021/05/29 13:29:39;;;;;;;5.70;4.40;;;;;;;;;;5053032;28;20032;-73
2021/05/29 13:32:05;;;;;;;6.00;4.00;;;;;;;;;;5052021;28;20481;-72
2021/05/29 13:34:31;;;;;;;5.55;4.30;;;;;;;;;;5051606;28;20025;-73
2021/05/29 13:36:57;;;;;;;6.18;4.20;;;;;;;;;;5051396;28;20035;-73
2021/05/29 13:39:23;;;;;;;6.25;4.47;;;;;;;;;;5051961;28;20052;-73
2021/05/29 13:41:48;;;;;;;7.05;4.38;;;;;;;;;;5051979;28;20056;-73
2021/05/29 13:44:14;;;;;;;4.97;4.05;;;;;;;;;;5052667;28;20044;-73
2021/05/29 13:46:40;;;;;;;6.47;4.93;;;;;;;;;;5052705;28;20086;-73
2021/05/29 13:49:05;;;;;;;7.50;4.90;;;;;;;;;;5052814;28;20033;-73
2021/05/29 13:51:36;;;;;;;7.25;4.57;;;;;;;;;;5051217;28;20044;-73
2021/05/29 13:54:03;;;;;;;9.07;5.28;;;;;;;;;;5052711;28;20041;-73
2021/05/29 13:56:30;;;;;;;7.32;4.70;;;;;;;;;;5050825;28;20033;-73
2021/05/29 13:58:56;;;;;;;7.10;4.47;;;;;;;;;;5052501;28;20577;-73
2021/05/29 14:01:21;;;;;;;11.68;5.35;;;;;;;;;;5052867;28;20120;-73
2021/05/29 14:03:47;;;;;;;6.68;5.25;;;;;;;;;;5052495;28;20040;-73
2021/05/29 14:06:13;;;;;;;6.63;4.72;;;;;;;;;;5052273;28;20107;-73
2021/05/29 14:08:39;;;;;;;9.27;5.30;;;;;;;;;;5052696;28;20044;-73
2021/05/29 14:11:05;;;;;;;8.23;4.45;;;;;;;;;;5051304;28;20056;-73
2021/05/29 14:13:31;;;;;;;6.97;4.88;;;;;;;;;;5052574;28;20029;-73
2021/05/29 14:15:57;;;;;;;6.80;4.75;;;;;;;;;;5052295;28;20485;-73
2021/05/29 14:18:22;;;;;;;5.97;4.38;;;;;;;;;;5052253;28;20475;-72
2021/05/29 14:20:47;;;;;;;6.88;4.63;;;;;;;;;;5052600;28;20099;-73
2021/05/29 14:23:13;;;;;;;7.05;4.80;;;;;;;;;;5052446;28;20112;-73
2021/05/29 14:25:38;;;;;;;6.03;4.70;;;;;;;;;;5052061;28;20040;-73
2021/05/29 14:28:04;;;;;;;8.25;4.72;;;;;;;;;;5051672;28;20539;-73
2021/05/29 14:30:29;;;;;;;6.13;4.75;;;;;;;;;;5052465;28;20033;-73
2021/05/29 14:32:55;;;;;;;6.97;4.28;;;;;;;;;;5054503;28;20167;-73
2021/05/29 14:35:20;;;;;;;7.38;4.18;;;;;;;;;;5056183;28;20048;-73
2021/05/29 14:37:46;;;;;;;6.00;4.43;;;;;;;;;;5055107;28;20033;-73
2021/05/29 14:40:11;;;;;;;4.97;3.85;;;;;;;;;;5055645;28;20060;-73
2021/05/29 14:42:37;;;;;;;7.45;4.20;;;;;;;;;;5054770;28;20042;-73
2021/05/29 14:45:04;;;;;;;12.63;4.18;;;;;;;;;;5055814;28;20057;-73
2021/05/29 14:47:29;;;;;;;7.10;4.25;;;;;;;;;;5055408;28;20033;-72
2021/05/29 14:49:55;;;;;;;5.47;3.60;;;;;;;;;;5055619;28;20492;-73
2021/05/29 14:52:24;;;;;;;7.65;4.85;;;;;;;;;;5055589;28;20036;-73
2021/05/29 14:54:50;;;;;;;5.63;4.05;;;;;;;;;;5055376;28;20037;-73
2021/05/29 14:57:15;;;;;;;6.57;4.50;;;;;;;;;;5055624;28;20033;-73
2021/05/29 14:59:41;;;;;;;4.80;3.95;;;;;;;;;;5055541;28;20033;-73
2021/05/29 15:02:07;;;;;;;6.65;4.40;;;;;;;;;;5055494;28;20429;-73
2021/05/29 15:04:39;;;;;;;6.07;4.72;;;;;;;;;;5054165;28;20055;-73
2021/05/29 15:07:05;;;;;;;5.78;4.82;;;;;;;;;;5054953;28;20151;-73
2021/05/29 15:09:30;;;;;;;7.40;4.60;;;;;;;;;;5053466;28;20119;-72